Lakeland, FL (33801)

3:16 PM EST on December 06, 2016 (GMT -0500)
Lake Parker | | Change Station

Elev 151 ft 28.05 °N, 81.94 °W | Updated 1 minute ago

Overcast
Overcast
76.5 °F
Feels Like 77 °F
N
6.0
Wind Variable Wind from West

Today
High -- | Low -- °F
--% Chance of Precip.
Yesterday
High -- | Low -- °F
Precip. -- in
Pressure 29.87 in
Visibility 10.0 miles
Clouds Mostly Cloudy 1000 ft
Overcast 1800 ft
Heat Index 77 °F
Dew Point 72 °F
Humidity 86%
Rainfall 0.00 in
Snow Depth Not available.
7:06 AM 5:32 PM
Waxing Crescent, 44% visible
METAR KLAL 061950Z 25010KT 10SM BKN010 OVC018 24/24 A2987
Pressure 29.87 in
Visibility 10.0 miles
Clouds Mostly Cloudy 1000 ft
Overcast 1800 ft
Heat Index 77 °F
Dew Point 72 °F
Humidity 86%
Rainfall 0.00 in
Snow Depth Not available.
7:06 AM 5:32 PM
Waxing Crescent, 44% visible
METAR KLAL 061950Z 25010KT 10SM BKN010 OVC018 24/24 A2987

10-Day Weather Forecast

Almanac

Astronomy

Dec. 06, 2016 Rise Set
Actual Time
Civil Twilight
Nautical Twilight
Astronomical Twilight
Moon
Length of Visible Light
Length of Day
Tomorrow will be .
, % of the Moon is Illuminated

Today's Extremes

State Highs State Lows

Community

WunderPhotos

Upload Photos

1,956,020 photos uploaded!

WunderBlog® & News

Nearby

Air Quality

  Air Quality AQ Index Pollutant
Not available.

Snow Depth

Station Depth Elevation

Earthquake Activity

City Distance Mag. Time & Date
Minimum magnitude displayed is 2.5.

Coastal Water Temperatures

Place Temperature

Stations

Nearby Weather Stations

Station Location Temp. Windchill Dew Point Humidity Wind Precip. Elev Updated Type
                   

Watches & Warnings

There are currently no watches in effect.